LFGJ 301030Z AUTO 04006KT 350V080 9999 FEW045 21/09 Q1017 NOSIG

ElémentsDécodage
LFGJ Station météo située sur l'aérodrome de DOLE Tavaux
301030Z émis le 30 du mois à 10h30 UTC
AUTO Bulletin édité par un automate
04006KT vent du 040°, 06 noeuds
350V080 vent de direction variable entre 350° et 080°
9999 visibilité horizontale supérieure à 10 Km
FEW045 nuages rares (1/8 à 2/8) à 4500 pieds
21/09 température 21°C, point de rosée 09°C
 soit une humidité relative de 46%
Q1017 la pression au niveau de la mer (QNH) est de 1017 hPa
NOSIG Pas de changement significatif prévu au cours des deux heures suivant l'heure de l'observation